Time;durP1;ratioP1;P1;durP2;ratioP2;P2;SDS_P1;SDS_P2;PMS_P1;PMS_P2;Temp;Humidity;BMP_temperature;BMP_pressure;BME280_temperature;BME280_humidity;BME280_pressure;Samples;Min_cycle;Max_cycle;Signal;HPM_P1;HPM_P2
2020/12/07 09:21:24;;;;;;;27.70;10.87;;;3.80;99.90;;;;;;4935612;29;20263;-71
2020/12/07 09:23:50;;;;;;;29.80;11.33;;;3.80;99.90;;;;;;4941146;29;20616;-74
2020/12/07 09:26:16;;;;;;;29.33;11.60;;;3.70;99.90;;;;;;4944822;29;20232;-76
2020/12/07 09:28:43;;;;;;;26.57;10.77;;;3.70;99.90;;;;;;4937863;29;20223;-79
2020/12/07 09:31:09;;;;;;;31.10;11.80;;;3.70;99.90;;;;;;4944827;29;20223;-74
2020/12/07 09:33:36;;;;;;;27.57;10.57;;;3.70;99.90;;;;;;4946803;29;20215;-73
2020/12/07 09:36:03;;;;;;;24.57;11.07;;;3.70;99.90;;;;;;4946360;29;20623;-76
2020/12/07 09:38:30;;;;;;;31.50;11.87;;;3.60;99.90;;;;;;4944968;29;20789;-76
2020/12/07 09:40:57;;;;;;;27.27;10.50;;;3.50;99.90;;;;;;4946257;29;20264;-71
2020/12/07 09:43:23;;;;;;;26.30;11.43;;;3.60;99.90;;;;;;4948856;29;20212;-77
2020/12/07 09:45:49;;;;;;;28.30;10.73;;;3.80;99.90;;;;;;4938099;29;20256;-73
2020/12/07 09:48:15;;;;;;;28.30;11.30;;;3.90;99.90;;;;;;4917873;29;20676;-75
2020/12/07 09:50:42;;;;;;;30.67;11.00;;;3.90;99.90;;;;;;4923549;29;20205;-71
2020/12/07 09:53:11;;;;;;;32.73;11.60;;;4.00;99.90;;;;;;4936110;29;20212;-73
2020/12/07 09:55:38;;;;;;;25.87;10.03;;;4.00;99.90;;;;;;4936018;29;20691;-73
2020/12/07 09:58:05;;;;;;;25.83;10.83;;;4.00;99.90;;;;;;4936367;29;20241;-81
2020/12/07 10:00:31;;;;;;;29.90;11.07;;;3.90;99.90;;;;;;4936085;29;20212;-72
2020/12/07 10:02:57;;;;;;;27.23;12.10;;;4.00;99.90;;;;;;4936253;29;20217;-73
2020/12/07 10:05:24;;;;;;;21.63;10.37;;;4.00;99.90;;;;;;4935724;29;20212;-72
2020/12/07 10:07:50;;;;;;;25.07;10.80;;;4.00;99.90;;;;;;4935986;29;20220;-73
2020/12/07 10:10:17;;;;;;;26.50;10.50;;;4.10;99.90;;;;;;4935505;29;20204;-72
2020/12/07 10:12:44;;;;;;;27.80;10.83;;;4.20;99.90;;;;;;4936057;29;20205;-70
2020/12/07 10:15:10;;;;;;;27.70;11.30;;;4.20;99.90;;;;;;4935284;29;20212;-69
2020/12/07 10:17:36;;;;;;;29.87;11.47;;;4.20;99.90;;;;;;4936023;29;20696;-68
2020/12/07 10:20:04;;;;;;;22.83;8.87;;;4.30;99.90;;;;;;4935206;29;20241;-72
2020/12/07 10:22:30;;;;;;;27.97;10.50;;;4.60;99.90;;;;;;4925745;29;20224;-73
2020/12/07 10:24:56;;;;;;;31.27;11.00;;;4.70;99.90;;;;;;4918535;29;20559;-72
2020/12/07 10:27:23;;;;;;;19.63;9.53;;;4.70;99.90;;;;;;4935745;29;20228;-77
2020/12/07 10:29:51;;;;;;;30.60;10.40;;;4.80;99.90;;;;;;4929716;29;20567;-78
2020/12/07 10:32:18;;;;;;;24.90;11.07;;;4.70;99.90;;;;;;4947973;29;20212;-73
2020/12/07 10:34:44;;;;;;;29.73;11.70;;;4.70;99.90;;;;;;4952624;28;20251;-74
2020/12/07 10:37:12;;;;;;;28.83;11.17;;;4.60;99.90;;;;;;4934104;29;20232;-75
2020/12/07 10:39:38;;;;;;;26.67;10.90;;;4.60;99.90;;;;;;4929150;29;20233;-73
2020/12/07 10:42:04;;;;;;;25.70;10.37;;;4.70;99.90;;;;;;4935534;29;20224;-77
2020/12/07 10:44:31;;;;;;;28.30;10.93;;;4.50;99.90;;;;;;4933034;29;20517;-78
2020/12/07 10:46:58;;;;;;;26.90;11.13;;;4.40;99.90;;;;;;4937518;29;20231;-69
2020/12/07 10:49:24;;;;;;;32.23;11.07;;;4.50;99.90;;;;;;4923126;29;20218;-72
2020/12/07 10:51:50;;;;;;;25.97;10.70;;;4.60;99.90;;;;;;4935277;29;20568;-73
2020/12/07 10:54:16;;;;;;;23.03;9.73;;;4.70;99.90;;;;;;4934967;29;20205;-72
2020/12/07 10:56:44;;;;;;;25.70;10.37;;;4.80;99.90;;;;;;4926408;29;20244;-72
2020/12/07 10:59:10;;;;;;;26.40;10.90;;;4.80;99.90;;;;;;4923248;29;20261;-72
2020/12/07 11:01:37;;;;;;;22.80;10.87;;;4.70;99.90;;;;;;4925344;29;20635;-72
2020/12/07 11:04:04;;;;;;;24.70;10.23;;;4.60;99.90;;;;;;4925083;29;20205;-72
2020/12/07 11:06:32;;;;;;;24.00;10.47;;;4.50;99.90;;;;;;4914200;29;20241;-73
2020/12/07 11:09:00;;;;;;;24.20;9.70;;;4.60;99.90;;;;;;4936852;29;20619;-73
2020/12/07 11:11:26;;;;;;;23.47;9.37;;;4.70;99.90;;;;;;4940301;28;20613;-72
2020/12/07 11:13:52;;;;;;;24.30;10.90;;;4.90;99.90;;;;;;4934409;29;20223;-72
2020/12/07 11:16:23;;;;;;;27.40;10.53;;;4.90;99.90;;;;;;4934895;29;20229;-73
2020/12/07 11:18:50;;;;;;;25.43;10.60;;;5.00;99.90;;;;;;4934883;29;20240;-72
2020/12/07 11:21:17;;;;;;;34.23;11.07;;;5.10;99.90;;;;;;4934472;29;20221;-73
2020/12/07 11:23:46;;;;;;;28.83;11.47;;;5.30;99.90;;;;;;4934653;29;20212;-73
2020/12/07 11:26:13;;;;;;;29.03;11.93;;;5.20;99.90;;;;;;4934591;29;20264;-73
2020/12/07 11:28:39;;;;;;;25.10;11.17;;;5.10;99.90;;;;;;4929414;29;20214;-72
2020/12/07 11:31:07;;;;;;;27.07;10.73;;;5.10;99.90;;;;;;4928140;29;20212;-73
2020/12/07 11:33:34;;;;;;;21.77;9.80;;;5.20;99.90;;;;;;4918417;29;20217;-73
2020/12/07 11:36:01;;;;;;;25.43;10.70;;;5.20;99.90;;;;;;4926242;29;20240;-73
2020/12/07 11:38:32;;;;;;;25.87;10.53;;;5.30;99.90;;;;;;4934267;29;20247;-73
2020/12/07 11:41:19;;;;;;;24.33;10.50;;;5.30;99.90;;;;;;4933778;29;20205;-72
2020/12/07 11:43:50;;;;;;;26.60;10.00;;;5.40;99.90;;;;;;4933859;29;20588;-73
2020/12/07 11:46:19;;;;;;;22.67;10.10;;;5.30;99.90;;;;;;4934382;29;20236;-72
2020/12/07 11:48:45;;;;;;;23.67;10.77;;;5.40;99.90;;;;;;4934333;29;20244;-73
2020/12/07 11:51:11;;;;;;;21.87;10.63;;;5.30;99.90;;;;;;4933762;29;20220;-73
2020/12/07 11:53:39;;;;;;;23.57;9.33;;;5.50;99.90;;;;;;4934086;29;20228;-74
2020/12/07 11:56:05;;;;;;;23.80;10.00;;;5.60;99.90;;;;;;4925610;29;20234;-71
2020/12/07 11:58:31;;;;;;;19.87;8.63;;;5.60;99.90;;;;;;4931723;29;20240;-69
2020/12/07 12:00:58;;;;;;;22.97;10.10;;;5.70;99.90;;;;;;4934816;29;20213;-69
2020/12/07 12:03:24;;;;;;;23.20;9.83;;;5.90;99.90;;;;;;4933117;29;20208;-71
2020/12/07 12:05:51;;;;;;;21.07;9.97;;;5.90;99.90;;;;;;4932848;29;20327;-71
2020/12/07 12:08:17;;;;;;;20.47;9.80;;;5.90;99.90;;;;;;4933138;29;20212;-70
2020/12/07 12:10:49;;;;;;;21.53;9.23;;;5.90;99.90;;;;;;4932318;29;20208;-71
2020/12/07 12:13:15;;;;;;;22.47;9.40;;;5.70;99.90;;;;;;4935416;29;20213;-72
2020/12/07 12:15:41;;;;;;;26.23;9.70;;;5.60;99.90;;;;;;4952708;29;20226;-83
2020/12/07 12:18:07;;;;;;;19.23;8.30;;;5.60;99.90;;;;;;4941029;29;20575;-71
2020/12/07 12:20:33;;;;;;;23.67;9.63;;;5.60;99.90;;;;;;4932184;29;20213;-71
2020/12/07 12:23:00;;;;;;;21.43;9.33;;;5.50;99.90;;;;;;4932836;29;20576;-72
2020/12/07 12:25:26;;;;;;;22.53;8.73;;;5.50;99.90;;;;;;4929583;29;20216;-73
2020/12/07 12:27:53;;;;;;;22.07;8.53;;;5.30;99.90;;;;;;4939569;29;20213;-72
2020/12/07 12:30:19;;;;;;;18.53;8.67;;;5.20;99.90;;;;;;4940061;29;20607;-71
2020/12/07 12:32:45;;;;;;;20.23;8.50;;;5.20;99.90;;;;;;4947167;29;20216;-71
2020/12/07 12:35:11;;;;;;;20.77;8.67;;;5.30;99.90;;;;;;4951855;28;20207;-70
2020/12/07 12:37:38;;;;;;;21.37;8.57;;;5.40;99.90;;;;;;4918693;28;20410;-73
2020/12/07 12:40:04;;;;;;;18.83;8.60;;;5.30;99.90;;;;;;4927136;29;20243;-72
2020/12/07 12:42:30;;;;;;;20.20;9.33;;;5.30;99.90;;;;;;4933025;29;20213;-71
2020/12/07 12:44:59;;;;;;;20.73;8.93;;;5.30;99.90;;;;;;4930646;29;20209;-71
2020/12/07 12:47:25;;;;;;;26.27;8.33;;;5.30;99.90;;;;;;4931353;29;20225;-73
2020/12/07 12:49:51;;;;;;;18.20;7.87;;;5.40;99.90;;;;;;4924159;29;20209;-71
2020/12/07 12:52:17;;;;;;;21.03;9.17;;;5.40;99.90;;;;;;4923904;29;20212;-72
2020/12/07 12:54:43;;;;;;;25.37;8.50;;;5.40;99.90;;;;;;4924640;29;20212;-70
2020/12/07 12:57:10;;;;;;;18.33;8.20;;;5.30;99.90;;;;;;4925702;28;20596;-73
2020/12/07 12:59:36;;;;;;;22.63;10.03;;;5.40;99.90;;;;;;4923444;29;20233;-71
2020/12/07 13:02:03;;;;;;;18.87;7.57;;;5.50;99.90;;;;;;4916418;29;20220;-70
2020/12/07 13:04:29;;;;;;;22.40;8.67;;;5.60;99.90;;;;;;4920533;29;20560;-71
2020/12/07 13:06:55;;;;;;;19.47;8.20;;;5.70;99.90;;;;;;4943141;29;20714;-76
2020/12/07 13:09:21;;;;;;;18.13;8.40;;;5.70;99.90;;;;;;4936042;29;20220;-73
2020/12/07 13:11:48;;;;;;;22.07;8.47;;;5.80;99.90;;;;;;4931210;29;20661;-73
2020/12/07 13:14:15;;;;;;;17.90;7.27;;;5.90;99.90;;;;;;4926871;29;20220;-71
2020/12/07 13:16:48;;;;;;;19.20;8.33;;;6.00;99.90;;;;;;4945661;28;20616;-72
2020/12/07 13:19:16;;;;;;;17.50;7.13;;;6.00;99.90;;;;;;4928078;29;20233;-73
2020/12/07 13:21:50;;;;;;;15.50;7.60;;;6.10;99.90;;;;;;4935829;29;20264;-72
2020/12/07 13:24:21;;;;;;;16.23;7.60;;;6.00;99.90;;;;;;4936453;29;20238;-70
2020/12/07 13:26:53;;;;;;;19.13;8.03;;;5.80;99.90;;;;;;4951333;29;20236;-71
2020/12/07 13:29:19;;;;;;;17.37;6.83;;;5.80;99.90;;;;;;4935354;29;20792;-71
2020/12/07 13:31:45;;;;;;;12.90;6.27;;;5.80;99.90;;;;;;4935762;29;20216;-72
2020/12/07 13:34:12;;;;;;;14.40;6.90;;;5.80;99.90;;;;;;4936444;29;20675;-71
2020/12/07 13:36:39;;;;;;;16.50;7.47;;;5.90;99.90;;;;;;4936549;29;20233;-71
2020/12/07 13:39:05;;;;;;;16.13;7.17;;;5.80;99.90;;;;;;4935991;29;20637;-70
2020/12/07 13:41:32;;;;;;;15.80;7.30;;;5.80;99.90;;;;;;4934296;29;20217;-71
2020/12/07 13:43:58;;;;;;;13.73;6.30;;;5.50;99.90;;;;;;4926816;29;20226;-71
2020/12/07 13:46:24;;;;;;;14.30;6.03;;;5.40;99.90;;;;;;4926163;29;20618;-70
2020/12/07 13:48:50;;;;;;;12.10;6.20;;;5.30;99.90;;;;;;4934672;29;20212;-69
2020/12/07 13:51:19;;;;;;;17.17;6.83;;;5.30;99.90;;;;;;4935234;29;20556;-70
2020/12/07 13:53:47;;;;;;;14.53;6.73;;;5.40;99.90;;;;;;4933919;29;20646;-70
2020/12/07 13:56:13;;;;;;;25.40;7.57;;;5.70;99.90;;;;;;4935490;29;20549;-72
2020/12/07 13:58:39;;;;;;;15.70;7.27;;;5.80;99.90;;;;;;4935501;29;20235;-72
2020/12/07 14:01:06;;;;;;;13.20;5.97;;;5.90;99.90;;;;;;4945206;29;20691;-71
2020/12/07 14:03:35;;;;;;;14.90;6.20;;;6.00;99.90;;;;;;4935660;29;20213;-72
2020/12/07 14:06:01;;;;;;;14.00;5.53;;;6.10;99.90;;;;;;4934747;29;20236;-72
2020/12/07 14:08:29;;;;;;;16.17;6.60;;;6.00;99.90;;;;;;4921455;29;20229;-70
2020/12/07 14:10:56;;;;;;;17.10;6.17;;;6.00;99.90;;;;;;4924620;29;20213;-69
2020/12/07 14:13:22;;;;;;;16.27;6.67;;;6.10;99.90;;;;;;4934050;29;20213;-70
2020/12/07 14:15:48;;;;;;;12.73;6.07;;;6.10;99.90;;;;;;4935679;29;20722;-72
2020/12/07 14:18:16;;;;;;;12.83;6.00;;;6.10;99.90;;;;;;4937876;28;20204;-72
2020/12/07 14:20:51;;;;;;;17.83;6.80;;;6.10;99.90;;;;;;4931806;29;20227;-73
2020/12/07 14:23:23;;;;;;;16.40;6.87;;;6.00;99.90;;;;;;4936052;29;20223;-71
2020/12/07 14:26:00;;;;;;;16.30;6.40;;;6.00;99.90;;;;;;4935718;29;20316;-71
2020/12/07 14:31:29;;;;;;;13.57;5.80;;;6.00;99.90;;;;;;4935389;29;20351;-72
2020/12/07 14:39:47;;;;;;;14.83;6.23;;;5.70;99.90;;;;;;4933149;29;20240;-74
2020/12/07 14:42:16;;;;;;;14.03;5.40;;;5.70;99.90;;;;;;4942960;29;20314;-72
2020/12/07 14:44:47;;;;;;;10.10;5.20;;;5.60;99.90;;;;;;4947778;28;20220;-72
2020/12/07 14:47:16;;;;;;;13.80;6.20;;;5.70;99.90;;;;;;4946373;28;20561;-73
2020/12/07 14:49:42;;;;;;;14.33;5.23;;;5.60;99.90;;;;;;4933107;29;20220;-76
2020/12/07 14:52:10;;;;;;;14.93;5.70;;;5.50;99.90;;;;;;4934133;29;20219;-74
2020/12/07 14:54:41;;;;;;;18.27;6.27;;;5.50;99.90;;;;;;4925366;29;20300;-72
2020/12/07 14:57:21;;;;;;;12.67;6.57;;;5.50;99.90;;;;;;4934510;29;20293;-69
2020/12/07 15:05:25;;;;;;;13.93;5.80;;;4.90;99.90;;;;;;4934336;29;20193;-69
2020/12/07 15:24:03;;;;;;;9.53;4.90;;;4.70;99.90;;;;;;5169669;27;20575;-71
2020/12/07 15:26:29;;;;;;;11.77;5.13;;;4.80;99.90;;;;;;5169845;27;20613;-73
2020/12/07 15:28:55;;;;;;;14.30;5.90;;;4.80;99.90;;;;;;5165866;27;20196;-73
2020/12/07 15:31:21;;;;;;;18.00;4.90;;;4.70;99.90;;;;;;5157528;27;20203;-71
2020/12/07 15:33:47;;;;;;;18.27;5.73;;;4.70;99.90;;;;;;5148572;27;20204;-72
2020/12/07 15:36:14;;;;;;;10.40;4.93;;;4.80;99.90;;;;;;5149051;27;20216;-71
2020/12/07 15:38:42;;;;;;;13.10;5.43;;;4.80;99.90;;;;;;5149071;27;20200;-72
2020/12/07 15:41:10;;;;;;;11.43;5.33;;;4.80;99.90;;;;;;5148342;27;20681;-71
2020/12/07 15:43:37;;;;;;;13.67;5.93;;;4.80;99.90;;;;;;5149152;27;20543;-72
2020/12/07 15:46:06;;;;;;;11.60;4.83;;;4.70;99.90;;;;;;5148857;27;20228;-71
2020/12/07 15:48:32;;;;;;;10.57;5.40;;;4.70;99.90;;;;;;5148804;27;20216;-72
2020/12/07 15:50:58;;;;;;;9.07;4.10;;;4.60;99.90;;;;;;5149094;27;20201;-72
2020/12/07 15:53:25;;;;;;;8.90;4.10;;;4.60;99.90;;;;;;5148440;27;20693;-72
2020/12/07 15:55:51;;;;;;;8.80;4.20;;;4.60;99.90;;;;;;5149019;27;20228;-70
2020/12/07 15:58:18;;;;;;;8.33;3.53;;;4.50;99.90;;;;;;5155763;27;20674;-71
2020/12/07 16:00:44;;;;;;;7.20;3.33;;;4.50;99.90;;;;;;5166621;27;20668;-73
2020/12/07 16:03:12;;;;;;;6.47;3.27;;;4.50;99.90;;;;;;5169503;27;20201;-74
2020/12/07 16:05:39;;;;;;;7.27;3.30;;;4.50;99.90;;;;;;5147545;27;20246;-73
2020/12/07 16:08:05;;;;;;;10.53;3.73;;;4.50;99.90;;;;;;5141515;27;20204;-70
2020/12/07 16:10:31;;;;;;;7.87;3.57;;;4.50;99.90;;;;;;5147476;27;20208;-71
2020/12/07 16:12:57;;;;;;;6.63;3.57;;;4.60;99.90;;;;;;5147942;27;20224;-72
2020/12/07 16:15:24;;;;;;;7.87;3.60;;;4.70;99.90;;;;;;5147441;27;20566;-72
2020/12/07 16:17:51;;;;;;;10.00;3.83;;;4.70;99.90;;;;;;5147398;27;20540;-72
2020/12/07 16:20:17;;;;;;;8.47;4.23;;;4.70;99.90;;;;;;5147662;27;20200;-72
2020/12/07 16:22:43;;;;;;;8.83;3.73;;;4.70;99.90;;;;;;5147869;27;20575;-72
2020/12/07 16:25:09;;;;;;;8.87;4.00;;;4.60;99.90;;;;;;5113114;28;20205;-71
2020/12/07 16:27:37;;;;;;;7.87;3.50;;;4.70;99.90;;;;;;5120866;27;20575;-71
2020/12/07 16:30:04;;;;;;;7.03;3.43;;;4.70;99.90;;;;;;5124673;27;20210;-72
2020/12/07 16:32:35;;;;;;;7.03;3.60;;;4.60;99.90;;;;;;5134170;27;20236;-71
2020/12/07 16:35:01;;;;;;;7.87;3.20;;;4.60;99.90;;;;;;5136627;27;20286;-71
2020/12/07 16:37:27;;;;;;;5.20;2.77;;;4.60;99.90;;;;;;5133646;27;20229;-71
2020/12/07 16:39:54;;;;;;;11.10;3.53;;;4.70;99.90;;;;;;5126705;27;20518;-69
2020/12/07 16:42:20;;;;;;;7.27;3.63;;;4.80;99.90;;;;;;5113834;28;20212;-69
2020/12/07 16:44:46;;;;;;;5.80;3.03;;;4.90;99.90;;;;;;5128176;27;20201;-70
2020/12/07 16:47:12;;;;;;;6.60;3.37;;;4.90;99.90;;;;;;5120967;27;20591;-69
2020/12/07 16:49:39;;;;;;;8.43;3.23;;;4.90;99.90;;;;;;5114325;28;20212;-70
2020/12/07 16:52:06;;;;;;;6.57;3.10;;;4.90;99.90;;;;;;5113956;28;20232;-70
2020/12/07 16:54:32;;;;;;;5.23;3.13;;;4.90;99.90;;;;;;5113886;28;20210;-70
2020/12/07 16:56:58;;;;;;;7.33;3.40;;;4.90;99.90;;;;;;5127346;27;20235;-69
2020/12/07 16:59:24;;;;;;;6.80;3.20;;;5.00;99.90;;;;;;5117331;27;20201;-72
2020/12/07 17:01:51;;;;;;;7.93;3.63;;;5.00;99.90;;;;;;5131300;27;20204;-71
2020/12/07 17:04:17;;;;;;;11.20;3.73;;;5.10;99.90;;;;;;5127711;27;20202;-70
2020/12/07 17:06:44;;;;;;;7.17;3.60;;;5.10;99.90;;;;;;5113215;27;20257;-71
2020/12/07 17:09:10;;;;;;;6.10;3.47;;;5.10;99.90;;;;;;5120059;27;20214;-70
2020/12/07 17:11:37;;;;;;;4.63;3.10;;;5.10;99.90;;;;;;5113192;28;20209;-70
2020/12/07 17:14:04;;;;;;;6.53;2.87;;;5.10;99.90;;;;;;5113294;28;20224;-70
2020/12/07 17:16:30;;;;;;;6.33;3.60;;;5.10;99.90;;;;;;5112755;28;20711;-70
2020/12/07 17:18:56;;;;;;;6.30;3.23;;;5.00;99.90;;;;;;5116655;27;20218;-70
2020/12/07 17:21:27;;;;;;;7.60;3.07;;;5.00;99.90;;;;;;5112965;28;20202;-70
2020/12/07 17:23:54;;;;;;;6.30;3.53;;;5.00;99.90;;;;;;5129787;27;20671;-70
2020/12/07 17:26:21;;;;;;;10.23;4.17;;;4.90;99.90;;;;;;5133051;27;20227;-70
2020/12/07 17:28:47;;;;;;;7.90;3.60;;;4.80;99.90;;;;;;5121091;27;20205;-70
2020/12/07 17:31:13;;;;;;;4.57;3.00;;;4.70;99.90;;;;;;5114918;27;20213;-70
2020/12/07 17:33:39;;;;;;;6.17;3.70;;;4.70;99.90;;;;;;5112505;28;20247;-71
2020/12/07 17:36:05;;;;;;;7.40;3.30;;;4.60;99.90;;;;;;5111377;28;20572;-69
2020/12/07 17:38:32;;;;;;;5.17;3.47;;;4.60;99.90;;;;;;5122971;27;20205;-69
2020/12/07 17:40:59;;;;;;;6.10;3.50;;;4.40;99.90;;;;;;5121477;27;20228;-68
2020/12/07 17:43:25;;;;;;;5.83;3.50;;;4.40;99.90;;;;;;5122714;27;20589;-69
2020/12/07 17:45:52;;;;;;;5.97;3.67;;;4.40;99.90;;;;;;5132740;27;20217;-69
2020/12/07 17:48:18;;;;;;;5.87;4.00;;;4.50;99.90;;;;;;5124464;27;20201;-69
2020/12/07 17:50:44;;;;;;;6.27;3.87;;;4.60;99.90;;;;;;5112331;28;20580;-69
2020/12/07 17:53:11;;;;;;;5.63;3.30;;;4.70;99.90;;;;;;5112559;28;20234;-69
2020/12/07 17:55:37;;;;;;;5.17;3.53;;;4.80;99.90;;;;;;5112277;28;20202;-68
2020/12/07 17:58:04;;;;;;;6.53;3.60;;;4.90;99.90;;;;;;5129147;27;20197;-69
2020/12/07 18:00:30;;;;;;;4.67;2.97;;;5.00;99.90;;;;;;5112187;28;20209;-68
2020/12/07 18:02:56;;;;;;;7.40;3.43;;;5.00;99.90;;;;;;5111522;28;20213;-68
2020/12/07 18:05:23;;;;;;;4.33;2.83;;;5.10;99.90;;;;;;5117778;27;20211;-69
2020/12/07 18:07:49;;;;;;;3.87;2.43;;;5.20;99.90;;;;;;5132295;27;20228;-68
2020/12/07 18:10:15;;;;;;;4.90;2.87;;;5.20;99.90;;;;;;5127039;27;20690;-69
2020/12/07 18:12:41;;;;;;;4.23;2.60;;;5.10;99.90;;;;;;5132696;27;20229;-69
2020/12/07 18:15:08;;;;;;;4.10;2.67;;;5.00;99.90;;;;;;5132616;27;20283;-69
2020/12/07 18:17:35;;;;;;;4.83;2.63;;;5.00;99.90;;;;;;5126314;27;20263;-69
2020/12/07 18:20:01;;;;;;;4.53;2.50;;;5.10;99.90;;;;;;5126035;27;20204;-69
2020/12/07 18:22:28;;;;;;;4.50;2.50;;;5.10;99.90;;;;;;5131013;27;20238;-69
2020/12/07 18:24:54;;;;;;;6.53;2.67;;;4.90;99.90;;;;;;5127698;27;20208;-69
2020/12/07 18:27:20;;;;;;;3.27;1.93;;;5.00;99.90;;;;;;5114386;27;20228;-68
2020/12/07 18:29:46;;;;;;;4.43;2.13;;;4.90;99.90;;;;;;5111973;28;20563;-69
2020/12/07 18:32:13;;;;;;;3.27;1.80;;;4.90;99.90;;;;;;5111691;28;20576;-68
2020/12/07 18:34:40;;;;;;;5.50;2.57;;;4.80;99.90;;;;;;5111554;28;20206;-68
2020/12/07 18:37:06;;;;;;;6.57;2.47;;;4.80;99.90;;;;;;5127676;27;20217;-68
2020/12/07 18:39:32;;;;;;;3.67;1.83;;;4.80;99.90;;;;;;5112332;27;20247;-69
2020/12/07 18:42:00;;;;;;;3.57;1.80;;;4.80;99.90;;;;;;5111746;28;20202;-68
2020/12/07 18:44:26;;;;;;;3.10;2.00;;;4.80;99.90;;;;;;5111424;28;20567;-69
2020/12/07 18:46:53;;;;;;;3.70;2.00;;;4.80;99.90;;;;;;5111980;27;20218;-68
2020/12/07 18:49:20;;;;;;;4.23;2.30;;;4.90;99.90;;;;;;5111243;28;20198;-68
2020/12/07 18:51:47;;;;;;;4.83;2.17;;;5.10;99.90;;;;;;5111043;28;20209;-68
2020/12/07 18:54:13;;;;;;;3.40;2.13;;;5.00;99.90;;;;;;5119418;27;20233;-68
2020/12/07 18:56:39;;;;;;;4.40;2.20;;;5.10;99.90;;;;;;5120050;27;20225;-68
2020/12/07 18:59:05;;;;;;;4.20;2.00;;;5.10;99.90;;;;;;5113743;27;20201;-70
2020/12/07 19:01:31;;;;;;;6.53;2.33;;;5.00;99.90;;;;;;5111384;28;20211;-68
2020/12/07 19:03:58;;;;;;;3.83;1.73;;;4.90;99.90;;;;;;5110856;28;20209;-68
2020/12/07 19:06:25;;;;;;;5.40;2.33;;;5.00;99.90;;;;;;5110870;28;20241;-68
2020/12/07 19:08:51;;;;;;;7.07;1.90;;;5.00;99.90;;;;;;5129552;27;20201;-70
2020/12/07 19:11:17;;;;;;;4.20;2.37;;;5.10;99.90;;;;;;5131508;27;20220;-69
2020/12/07 19:13:43;;;;;;;6.37;3.00;;;5.10;99.90;;;;;;5125816;28;20698;-71
2020/12/07 19:16:11;;;;;;;3.53;2.17;;;5.20;99.90;;;;;;5132264;27;20220;-67
2020/12/07 19:18:38;;;;;;;6.17;2.40;;;5.10;99.90;;;;;;5133498;27;20201;-67
2020/12/07 19:21:04;;;;;;;5.33;2.20;;;5.00;99.90;;;;;;5133680;27;20493;-67
2020/12/07 19:23:31;;;;;;;4.60;2.00;;;5.10;99.90;;;;;;5133129;27;20228;-67
2020/12/07 19:25:57;;;;;;;5.43;2.27;;;5.20;99.90;;;;;;5133737;27;20232;-67
2020/12/07 19:28:24;;;;;;;6.30;2.90;;;5.30;99.90;;;;;;5133722;27;20575;-67
2020/12/07 19:30:50;;;;;;;9.13;2.60;;;5.10;99.90;;;;;;5133815;27;20209;-67
2020/12/07 19:33:16;;;;;;;5.93;2.33;;;5.00;99.90;;;;;;5133207;27;20229;-67
2020/12/07 19:35:43;;;;;;;5.50;2.77;;;5.20;99.90;;;;;;5133389;27;20201;-67
2020/12/07 19:38:09;;;;;;;4.97;2.70;;;5.30;99.90;;;;;;5133595;27;20628;-67
2020/12/07 19:40:38;;;;;;;5.00;2.67;;;5.40;99.90;;;;;;5133622;27;20205;-67
2020/12/07 19:43:04;;;;;;;5.50;2.57;;;5.40;99.90;;;;;;5133349;27;20208;-67
2020/12/07 19:45:31;;;;;;;4.53;2.63;;;5.30;99.90;;;;;;5132893;27;20197;-67
2020/12/07 19:47:58;;;;;;;3.87;2.33;;;5.40;99.90;;;;;;5132877;27;20201;-67
2020/12/07 19:50:25;;;;;;;7.00;2.53;;;5.40;99.90;;;;;;5133339;27;20209;-67
2020/12/07 19:52:51;;;;;;;5.57;2.53;;;5.40;99.90;;;;;;5132239;27;20236;-67
2020/12/07 19:55:17;;;;;;;4.20;2.40;;;5.40;99.90;;;;;;5132927;27;20197;-67
2020/12/07 19:57:45;;;;;;;5.03;2.70;;;5.30;99.90;;;;;;5132223;27;20213;-67
2020/12/07 20:00:12;;;;;;;5.10;2.53;;;5.30;99.90;;;;;;5136273;27;20197;-67
2020/12/07 20:02:39;;;;;;;6.23;2.30;;;5.40;99.90;;;;;;5134147;27;20201;-67
2020/12/07 20:05:05;;;;;;;4.97;2.50;;;5.40;99.90;;;;;;5135615;27;20204;-67
2020/12/07 20:07:31;;;;;;;5.43;2.63;;;5.40;99.90;;;;;;5135137;27;20217;-67
2020/12/07 20:09:58;;;;;;;5.37;2.77;;;5.40;99.90;;;;;;5136706;27;20208;-67
2020/12/07 20:12:27;;;;;;;4.93;3.23;;;5.30;99.90;;;;;;5136552;27;20564;-67
2020/12/07 20:14:54;;;;;;;8.30;3.23;;;5.10;99.90;;;;;;5136579;27;20208;-67
2020/12/07 20:17:20;;;;;;;5.20;2.93;;;5.20;99.90;;;;;;5136474;27;20225;-67
2020/12/07 20:19:46;;;;;;;5.53;3.30;;;5.30;99.90;;;;;;5136536;27;20197;-67
2020/12/07 20:22:12;;;;;;;6.97;2.93;;;5.40;99.90;;;;;;5137025;27;20213;-67
2020/12/07 20:24:39;;;;;;;6.33;3.27;;;5.50;99.90;;;;;;5137112;27;20201;-67
2020/12/07 20:27:06;;;;;;;6.60;3.00;;;5.50;99.90;;;;;;5136963;27;20228;-67
2020/12/07 20:29:32;;;;;;;8.87;3.57;;;5.50;99.90;;;;;;5135997;27;20205;-67
2020/12/07 20:32:00;;;;;;;5.67;2.70;;;5.40;99.90;;;;;;5135991;27;20208;-67
2020/12/07 20:34:26;;;;;;;5.87;2.93;;;5.30;99.90;;;;;;5136087;27;20204;-67
2020/12/07 20:36:52;;;;;;;5.97;3.43;;;5.50;99.90;;;;;;5136479;27;20580;-67
2020/12/07 20:39:19;;;;;;;10.20;2.93;;;5.50;99.90;;;;;;5136502;27;20205;-67
2020/12/07 20:41:45;;;;;;;7.70;3.43;;;5.50;99.90;;;;;;5136371;27;20204;-67
2020/12/07 20:44:12;;;;;;;7.10;3.07;;;5.30;99.90;;;;;;5136568;27;20235;-67
2020/12/07 20:46:42;;;;;;;5.17;3.00;;;5.30;99.90;;;;;;5136803;27;20241;-67
2020/12/07 20:49:10;;;;;;;5.43;3.07;;;5.20;99.90;;;;;;5136929;27;20204;-67
2020/12/07 20:51:36;;;;;;;5.53;3.10;;;5.20;99.90;;;;;;5136567;27;20201;-67
2020/12/07 20:54:02;;;;;;;5.97;3.23;;;5.20;99.90;;;;;;5136163;27;20232;-67
2020/12/07 20:56:29;;;;;;;6.33;3.40;;;5.30;99.90;;;;;;5136060;27;20225;-67
2020/12/07 20:58:56;;;;;;;6.93;3.60;;;5.30;99.90;;;;;;5135937;27;20295;-67
2020/12/07 21:01:22;;;;;;;6.87;3.40;;;5.30;99.90;;;;;;5136042;27;20235;-67
2020/12/07 21:03:49;;;;;;;8.03;3.50;;;5.30;99.90;;;;;;5136121;27;20208;-67
2020/12/07 21:06:18;;;;;;;5.97;3.17;;;5.30;99.90;;;;;;5136051;27;20239;-67
2020/12/07 21:08:44;;;;;;;6.73;3.27;;;5.20;99.90;;;;;;5135884;27;20201;-67
2020/12/07 21:11:11;;;;;;;6.50;3.10;;;5.20;99.90;;;;;;5135587;27;20651;-67
2020/12/07 21:13:39;;;;;;;6.50;3.37;;;5.20;99.90;;;;;;5136020;27;20319;-67
2020/12/07 21:16:05;;;;;;;7.43;3.90;;;5.30;99.90;;;;;;5136598;27;20220;-67
2020/12/07 21:18:31;;;;;;;5.97;3.40;;;5.20;99.90;;;;;;5136192;27;20549;-67
2020/12/07 21:20:57;;;;;;;10.37;4.80;;;5.10;99.90;;;;;;5135935;27;20214;-68
2020/12/07 21:23:24;;;;;;;9.73;3.80;;;5.10;99.90;;;;;;5135454;27;20576;-67
2020/12/07 21:25:51;;;;;;;8.87;3.97;;;5.00;99.90;;;;;;5135720;27;20221;-67
2020/12/07 21:28:17;;;;;;;7.33;3.50;;;5.00;99.90;;;;;;5135814;27;20201;-67
2020/12/07 21:30:43;;;;;;;8.03;3.53;;;5.10;99.90;;;;;;5135805;27;20201;-68
2020/12/07 21:33:09;;;;;;;6.90;3.40;;;5.00;99.90;;;;;;5135281;27;20697;-67
2020/12/07 21:35:35;;;;;;;7.93;3.97;;;4.90;99.90;;;;;;5135117;27;20201;-67
2020/12/07 21:38:01;;;;;;;10.23;4.83;;;4.90;99.90;;;;;;5135531;27;20197;-67
2020/12/07 21:40:28;;;;;;;7.40;4.63;;;4.60;99.90;;;;;;5135157;27;20678;-68
2020/12/07 21:42:55;;;;;;;10.00;4.87;;;4.30;99.90;;;;;;5135752;27;20201;-68
2020/12/07 21:45:22;;;;;;;8.93;4.33;;;4.50;99.90;;;;;;5135336;27;20205;-68
2020/12/07 21:47:48;;;;;;;7.57;4.40;;;4.60;99.90;;;;;;5135189;27;20258;-68
2020/12/07 21:50:14;;;;;;;11.07;5.13;;;4.70;99.90;;;;;;5134970;27;20197;-68
2020/12/07 21:52:42;;;;;;;9.60;4.80;;;4.80;99.90;;;;;;5135062;27;20224;-68
2020/12/07 21:55:08;;;;;;;9.03;5.00;;;4.60;99.90;;;;;;5134687;27;20205;-68
2020/12/07 21:57:36;;;;;;;10.63;4.97;;;4.50;99.90;;;;;;5134920;27;20230;-68
2020/12/07 22:00:04;;;;;;;9.93;5.00;;;4.30;99.90;;;;;;5135011;27;20206;-69
2020/12/07 22:02:30;;;;;;;10.83;4.87;;;4.20;99.90;;;;;;5134784;27;20209;-68
2020/12/07 22:04:57;;;;;;;10.40;4.83;;;4.00;99.90;;;;;;5135076;27;20559;-68
2020/12/07 22:07:23;;;;;;;10.53;4.60;;;4.20;99.90;;;;;;5134658;27;20229;-68
2020/12/07 22:09:49;;;;;;;7.47;4.77;;;4.40;99.90;;;;;;5134436;27;20208;-68
2020/12/07 22:12:16;;;;;;;10.00;5.03;;;4.60;99.90;;;;;;5134923;27;20207;-69
2020/12/07 22:14:43;;;;;;;8.53;4.40;;;4.70;99.90;;;;;;5135101;27;20201;-69
2020/12/07 22:17:09;;;;;;;8.47;3.87;;;4.80;99.90;;;;;;5134872;27;20267;-68
2020/12/07 22:19:36;;;;;;;8.80;4.20;;;4.80;99.90;;;;;;5134908;27;20255;-68
2020/12/07 22:22:02;;;;;;;8.97;4.00;;;4.80;99.90;;;;;;5133690;27;20208;-68
2020/12/07 22:24:29;;;;;;;10.10;4.83;;;4.70;99.90;;;;;;5134523;27;20624;-68
2020/12/07 22:27:00;;;;;;;7.60;4.27;;;4.80;99.90;;;;;;5134763;27;20221;-68
2020/12/07 22:29:26;;;;;;;9.70;4.10;;;4.80;99.90;;;;;;5134742;27;20236;-68
2020/12/07 22:31:53;;;;;;;11.90;4.83;;;4.80;99.90;;;;;;5134425;27;20208;-69
2020/12/07 22:34:20;;;;;;;6.47;3.90;;;4.70;99.90;;;;;;5134427;27;20229;-68
2020/12/07 22:36:47;;;;;;;7.70;4.33;;;4.60;99.90;;;;;;5133989;27;20217;-69
2020/12/07 22:39:13;;;;;;;7.53;4.20;;;4.50;99.90;;;;;;5134163;27;20201;-68